Time;durP1;ratioP1;P1;durP2;ratioP2;P2;SDS_P1;SDS_P2;PMS_P1;PMS_P2;Temp;Humidity;BMP_temperature;BMP_pressure;BME280_temperature;BME280_humidity;BME280_pressure;Samples;Min_cycle;Max_cycle;Signal;HPM_P1;HPM_P2
2021/10/04 00:01:06;;;;;;;94.13;36.22;;;;;;;;;;5030101;28;20033;-74
2021/10/04 00:03:32;;;;;;;91.55;35.95;;;;;;;;;;5031933;28;20052;-73
2021/10/04 00:05:58;;;;;;;91.50;35.67;;;;;;;;;;5031742;28;20029;-73
2021/10/04 00:08:23;;;;;;;94.22;36.88;;;;;;;;;;5031366;28;20045;-74
2021/10/04 00:10:50;;;;;;;88.43;35.58;;;;;;;;;;5030281;28;20021;-72
2021/10/04 00:13:15;;;;;;;87.45;34.92;;;;;;;;;;5030184;28;20504;-74
2021/10/04 00:15:41;;;;;;;94.78;33.15;;;;;;;;;;5031161;28;20025;-73
2021/10/04 00:18:07;;;;;;;87.80;34.45;;;;;;;;;;5030853;28;20152;-73
2021/10/04 00:20:32;;;;;;;93.93;35.38;;;;;;;;;;5030203;28;20065;-73
2021/10/04 00:22:59;;;;;;;90.60;35.20;;;;;;;;;;5030101;28;20035;-74
2021/10/04 00:25:25;;;;;;;95.00;39.17;;;;;;;;;;5030029;28;20033;-73
2021/10/04 00:27:51;;;;;;;95.00;36.45;;;;;;;;;;5029807;28;20538;-73
2021/10/04 00:30:16;;;;;;;95.88;34.38;;;;;;;;;;5030974;28;20469;-73
2021/10/04 00:32:45;;;;;;;88.15;35.63;;;;;;;;;;5031364;28;20389;-72
2021/10/04 00:35:13;;;;;;;94.40;36.42;;;;;;;;;;5029148;28;20524;-73
2021/10/04 00:37:40;;;;;;;102.28;34.58;;;;;;;;;;5029468;28;20464;-74
2021/10/04 00:40:09;;;;;;;87.57;37.47;;;;;;;;;;5031148;28;20262;-75
2021/10/04 00:42:35;;;;;;;90.57;34.78;;;;;;;;;;5030511;28;20060;-75
2021/10/04 00:45:01;;;;;;;85.22;36.25;;;;;;;;;;5030735;28;20032;-72
2021/10/04 00:47:28;;;;;;;92.37;35.37;;;;;;;;;;5029170;28;20033;-73
2021/10/04 00:49:54;;;;;;;89.55;34.03;;;;;;;;;;5029294;28;20033;-73
2021/10/04 00:52:19;;;;;;;88.90;32.42;;;;;;;;;;5028751;28;20029;-73
2021/10/04 00:54:45;;;;;;;85.25;34.97;;;;;;;;;;5030036;28;20410;-73
2021/10/04 00:57:10;;;;;;;91.82;35.75;;;;;;;;;;5030073;28;20661;-73
2021/10/04 00:59:36;;;;;;;92.45;34.40;;;;;;;;;;5030253;28;20041;-73
2021/10/04 01:02:02;;;;;;;92.30;34.78;;;;;;;;;;5030357;28;20036;-73
2021/10/04 01:04:27;;;;;;;92.15;35.97;;;;;;;;;;5029706;28;20469;-73
2021/10/04 01:06:58;;;;;;;80.50;31.77;;;;;;;;;;5029827;28;20576;-72
2021/10/04 01:09:25;;;;;;;86.72;35.75;;;;;;;;;;5028381;28;20131;-73
2021/10/04 01:11:52;;;;;;;94.83;35.30;;;;;;;;;;5029955;28;20878;-73
2021/10/04 01:14:18;;;;;;;91.55;33.90;;;;;;;;;;5029735;28;20095;-73
2021/10/04 01:16:43;;;;;;;82.83;34.70;;;;;;;;;;5028479;28;20060;-73
2021/10/04 01:19:10;;;;;;;97.20;36.65;;;;;;;;;;5029818;28;20021;-73
2021/10/04 01:21:36;;;;;;;87.30;35.07;;;;;;;;;;5029944;28;20036;-73
2021/10/04 01:24:02;;;;;;;95.20;35.42;;;;;;;;;;5029992;28;20033;-73
2021/10/04 01:26:27;;;;;;;77.82;33.08;;;;;;;;;;5029685;28;20541;-73
2021/10/04 01:28:53;;;;;;;85.47;35.55;;;;;;;;;;5028187;28;20061;-73
2021/10/04 01:31:22;;;;;;;82.40;34.63;;;;;;;;;;5030220;28;20489;-73
2021/10/04 01:33:49;;;;;;;81.60;34.97;;;;;;;;;;5030669;28;20033;-72
2021/10/04 01:36:15;;;;;;;91.47;33.20;;;;;;;;;;5029499;28;20080;-72
2021/10/04 01:38:40;;;;;;;83.63;34.03;;;;;;;;;;5028725;28;20033;-72
2021/10/04 01:41:06;;;;;;;84.10;32.97;;;;;;;;;;5028513;28;20536;-73
2021/10/04 01:43:31;;;;;;;96.93;37.90;;;;;;;;;;5029754;28;20037;-73
2021/10/04 01:45:58;;;;;;;81.68;34.45;;;;;;;;;;5029503;28;20123;-73
2021/10/04 01:48:23;;;;;;;90.87;36.77;;;;;;;;;;5029501;28;20065;-72
2021/10/04 01:50:50;;;;;;;88.17;35.67;;;;;;;;;;5027994;28;20029;-74
2021/10/04 01:53:16;;;;;;;90.83;35.40;;;;;;;;;;5029323;28;20033;-73
2021/10/04 01:55:42;;;;;;;86.67;33.83;;;;;;;;;;5029827;28;20029;-73
2021/10/04 01:58:08;;;;;;;94.70;39.17;;;;;;;;;;5029902;28;20466;-75
2021/10/04 02:00:34;;;;;;;98.00;38.13;;;;;;;;;;5028456;28;20447;-74
2021/10/04 02:03:00;;;;;;;93.77;38.77;;;;;;;;;;5030186;28;20030;-73
2021/10/04 02:05:28;;;;;;;104.97;39.80;;;;;;;;;;5029821;28;20079;-74
2021/10/04 02:07:54;;;;;;;114.68;45.00;;;;;;;;;;5030062;28;20476;-73
2021/10/04 02:10:23;;;;;;;100.70;40.65;;;;;;;;;;5028235;28;20022;-73
2021/10/04 02:12:49;;;;;;;104.60;41.20;;;;;;;;;;5029891;28;20035;-74
2021/10/04 02:15:15;;;;;;;103.10;38.93;;;;;;;;;;5028220;28;20468;-74
2021/10/04 02:17:40;;;;;;;96.77;39.93;;;;;;;;;;5029667;28;20025;-74
2021/10/04 02:20:11;;;;;;;89.07;36.67;;;;;;;;;;5029632;28;20037;-74
2021/10/04 02:22:36;;;;;;;74.27;32.10;;;;;;;;;;5029918;28;20044;-73
2021/10/04 02:25:03;;;;;;;86.90;31.90;;;;;;;;;;5029663;28;20425;-73
2021/10/04 02:27:28;;;;;;;80.17;31.27;;;;;;;;;;5028188;28;20037;-73
2021/10/04 02:29:53;;;;;;;82.30;33.13;;;;;;;;;;5028410;28;20385;-73
2021/10/04 02:32:19;;;;;;;81.43;32.13;;;;;;;;;;5028082;28;20037;-73
2021/10/04 02:34:45;;;;;;;78.53;35.37;;;;;;;;;;5029249;28;20127;-73
2021/10/04 02:37:12;;;;;;;80.47;33.70;;;;;;;;;;5028270;28;20040;-73
2021/10/04 02:39:37;;;;;;;90.03;33.50;;;;;;;;;;5030977;28;20470;-73
2021/10/04 02:42:03;;;;;;;77.67;32.07;;;;;;;;;;5033282;28;20061;-74
2021/10/04 02:44:28;;;;;;;92.60;35.37;;;;;;;;;;5032001;28;20057;-72
2021/10/04 02:46:54;;;;;;;80.43;32.77;;;;;;;;;;5033381;28;20033;-73
2021/10/04 02:49:20;;;;;;;98.80;35.90;;;;;;;;;;5033031;28;20190;-74
2021/10/04 02:51:45;;;;;;;89.60;36.13;;;;;;;;;;5033154;28;20030;-74
2021/10/04 02:54:11;;;;;;;81.00;34.80;;;;;;;;;;5032815;28;20045;-73
2021/10/04 02:56:36;;;;;;;90.63;34.67;;;;;;;;;;5032587;28;20029;-73
2021/10/04 02:59:02;;;;;;;77.03;33.97;;;;;;;;;;5032710;28;20500;-73
2021/10/04 03:01:27;;;;;;;87.83;34.23;;;;;;;;;;5031375;28;20056;-73
2021/10/04 03:03:53;;;;;;;90.07;34.73;;;;;;;;;;5032616;28;20504;-73
2021/10/04 03:06:18;;;;;;;88.57;35.73;;;;;;;;;;5032507;28;20037;-73
2021/10/04 03:08:44;;;;;;;86.97;34.67;;;;;;;;;;5032465;28;20037;-74
2021/10/04 03:11:09;;;;;;;89.07;35.13;;;;;;;;;;5032520;28;20036;-74
2021/10/04 03:13:35;;;;;;;87.27;35.03;;;;;;;;;;5032557;28;20061;-74
2021/10/04 03:16:00;;;;;;;100.37;35.10;;;;;;;;;;5031222;28;20072;-73
2021/10/04 03:18:26;;;;;;;86.90;34.13;;;;;;;;;;5031162;28;20117;-75
2021/10/04 03:20:51;;;;;;;89.87;35.03;;;;;;;;;;5032558;28;20390;-72
2021/10/04 03:23:17;;;;;;;87.60;35.93;;;;;;;;;;5031176;28;20060;-74
2021/10/04 03:25:43;;;;;;;99.67;38.27;;;;;;;;;;5032341;28;20481;-74
2021/10/04 03:28:09;;;;;;;95.60;38.47;;;;;;;;;;5032245;28;20035;-74
2021/10/04 03:30:35;;;;;;;96.53;37.63;;;;;;;;;;5030407;28;20079;-74
2021/10/04 03:33:02;;;;;;;97.50;37.43;;;;;;;;;;5032139;28;20482;-74
2021/10/04 03:35:28;;;;;;;86.20;34.73;;;;;;;;;;5031934;28;20103;-73
2021/10/04 03:37:53;;;;;;;104.40;36.77;;;;;;;;;;5030656;28;20030;-73
2021/10/04 03:40:19;;;;;;;93.73;34.97;;;;;;;;;;5031723;28;20389;-74
2021/10/04 03:42:45;;;;;;;87.57;35.23;;;;;;;;;;5031991;28;20033;-74
2021/10/04 03:45:12;;;;;;;86.90;36.47;;;;;;;;;;5032598;28;20033;-74
2021/10/04 03:47:37;;;;;;;94.70;37.57;;;;;;;;;;5032735;28;20344;-73
2021/10/04 03:50:05;;;;;;;85.47;35.13;;;;;;;;;;5032470;28;20458;-74
2021/10/04 03:52:30;;;;;;;98.73;35.77;;;;;;;;;;5032343;28;20033;-72
2021/10/04 03:54:56;;;;;;;98.53;35.90;;;;;;;;;;5032676;28;20412;-73
2021/10/04 03:57:21;;;;;;;92.37;36.30;;;;;;;;;;5032250;28;20025;-74
2021/10/04 03:59:47;;;;;;;90.87;35.97;;;;;;;;;;5032216;28;20492;-73
2021/10/04 04:02:13;;;;;;;89.57;35.57;;;;;;;;;;5031848;28;20099;-74
2021/10/04 04:04:38;;;;;;;88.00;34.43;;;;;;;;;;5030865;28;20389;-74
2021/10/04 04:07:04;;;;;;;94.70;36.13;;;;;;;;;;5030146;28;20035;-73
2021/10/04 04:09:30;;;;;;;93.47;37.60;;;;;;;;;;5029782;28;20447;-74
2021/10/04 04:11:55;;;;;;;99.57;37.20;;;;;;;;;;5031601;28;20037;-73
2021/10/04 04:14:22;;;;;;;89.10;36.17;;;;;;;;;;5031688;28;20108;-74
2021/10/04 04:16:47;;;;;;;95.77;37.53;;;;;;;;;;5028167;28;20486;-73
2021/10/04 04:19:13;;;;;;;87.87;35.57;;;;;;;;;;5018867;28;20037;-73
2021/10/04 04:21:40;;;;;;;94.30;37.80;;;;;;;;;;5020830;28;20132;-72
2021/10/04 04:24:06;;;;;;;86.73;35.43;;;;;;;;;;5026734;28;20422;-72
2021/10/04 04:26:31;;;;;;;98.07;36.77;;;;;;;;;;5027238;28;20065;-70
2021/10/04 04:28:56;;;;;;;91.57;36.27;;;;;;;;;;5020267;28;20079;-72
2021/10/04 04:31:22;;;;;;;96.23;34.93;;;;;;;;;;5032612;28;20100;-73
2021/10/04 04:33:47;;;;;;;97.80;36.80;;;;;;;;;;5023322;28;20454;-72
2021/10/04 04:36:13;;;;;;;92.97;35.67;;;;;;;;;;5020030;28;20057;-72
2021/10/04 04:38:38;;;;;;;93.83;34.73;;;;;;;;;;5015874;28;20080;-73
2021/10/04 04:41:04;;;;;;;84.43;34.63;;;;;;;;;;5012384;28;20493;-72
2021/10/04 04:43:29;;;;;;;92.03;34.60;;;;;;;;;;5014060;28;20029;-73
2021/10/04 04:45:56;;;;;;;87.90;33.90;;;;;;;;;;5023028;28;20055;-72
2021/10/04 04:48:22;;;;;;;83.37;32.73;;;;;;;;;;5027423;28;20120;-71
2021/10/04 04:50:48;;;;;;;82.07;31.33;;;;;;;;;;5015549;28;20026;-72
2021/10/04 04:53:13;;;;;;;84.07;32.70;;;;;;;;;;5011098;28;20044;-70
2021/10/04 04:55:39;;;;;;;95.77;32.27;;;;;;;;;;5010756;28;20034;-73
2021/10/04 04:58:06;;;;;;;82.50;32.13;;;;;;;;;;5014432;28;20454;-72
2021/10/04 05:00:32;;;;;;;80.20;31.37;;;;;;;;;;5017587;28;20379;-71
2021/10/04 05:02:57;;;;;;;78.63;31.37;;;;;;;;;;5014697;28;20037;-71
2021/10/04 05:05:23;;;;;;;78.77;29.73;;;;;;;;;;5029056;28;20045;-73
2021/10/04 05:07:49;;;;;;;74.13;31.17;;;;;;;;;;5015202;28;20430;-71
2021/10/04 05:10:15;;;;;;;82.00;30.00;;;;;;;;;;5019811;28;20385;-71
2021/10/04 05:12:41;;;;;;;83.70;33.90;;;;;;;;;;5021987;28;20034;-70
2021/10/04 05:15:07;;;;;;;92.13;32.47;;;;;;;;;;5023161;28;20025;-73
2021/10/04 05:17:33;;;;;;;78.13;31.93;;;;;;;;;;5025739;28;20444;-71
2021/10/04 05:19:59;;;;;;;73.73;30.73;;;;;;;;;;5009285;28;20038;-70
2021/10/04 05:22:24;;;;;;;80.60;33.17;;;;;;;;;;5019786;28;20511;-71
2021/10/04 05:24:50;;;;;;;83.03;33.70;;;;;;;;;;5028545;28;20025;-71
2021/10/04 05:27:15;;;;;;;78.73;32.07;;;;;;;;;;5022367;28;20112;-72
2021/10/04 05:29:41;;;;;;;73.10;29.87;;;;;;;;;;5017687;28;20084;-72
2021/10/04 05:32:07;;;;;;;79.93;31.17;;;;;;;;;;5014424;28;20107;-73
2021/10/04 05:34:32;;;;;;;83.77;35.30;;;;;;;;;;5032297;28;20068;-72
2021/10/04 05:36:59;;;;;;;85.80;33.87;;;;;;;;;;5021889;28;20037;-74
2021/10/04 05:39:25;;;;;;;79.20;32.60;;;;;;;;;;5024265;28;20050;-75
2021/10/04 05:41:50;;;;;;;83.20;34.63;;;;;;;;;;5015378;28;20052;-73
2021/10/04 05:44:16;;;;;;;76.90;32.20;;;;;;;;;;5023010;28;20068;-74
2021/10/04 05:46:41;;;;;;;86.93;33.93;;;;;;;;;;5007463;28;20129;-73
2021/10/04 05:49:07;;;;;;;71.17;31.53;;;;;;;;;;5020574;28;20029;-74
2021/10/04 05:51:33;;;;;;;81.87;34.10;;;;;;;;;;5028036;28;20029;-73
2021/10/04 05:53:58;;;;;;;86.90;35.43;;;;;;;;;;5028673;28;20032;-73
2021/10/04 05:56:24;;;;;;;81.07;31.13;;;;;;;;;;5025480;28;20048;-73
2021/10/04 05:58:50;;;;;;;77.32;33.00;;;;;;;;;;5025681;28;20033;-73
2021/10/04 06:01:15;;;;;;;81.07;32.95;;;;;;;;;;5030703;28;20056;-73
2021/10/04 06:03:41;;;;;;;73.18;30.55;;;;;;;;;;5044467;28;20063;-73
2021/10/04 06:06:06;;;;;;;77.00;31.10;;;;;;;;;;5012444;28;20120;-73
2021/10/04 06:08:32;;;;;;;68.07;30.58;;;;;;;;;;5027509;28;20033;-74
2021/10/04 06:10:58;;;;;;;83.35;33.08;;;;;;;;;;5027955;28;20022;-73
2021/10/04 06:13:24;;;;;;;76.95;32.05;;;;;;;;;;5031724;28;20059;-73
2021/10/04 06:15:49;;;;;;;88.70;35.35;;;;;;;;;;5035746;28;20037;-72
2021/10/04 06:18:15;;;;;;;83.22;33.55;;;;;;;;;;5030878;28;20082;-75
2021/10/04 06:20:41;;;;;;;81.65;33.63;;;;;;;;;;5036787;28;20037;-72
2021/10/04 06:23:09;;;;;;;72.53;32.05;;;;;;;;;;5041574;28;20037;-74
2021/10/04 06:25:35;;;;;;;79.00;36.63;;;;;;;;;;5021113;28;20041;-73
2021/10/04 06:28:01;;;;;;;70.93;30.33;;;;;;;;;;5034100;28;20040;-74
2021/10/04 06:30:27;;;;;;;72.43;31.08;;;;;;;;;;5037390;28;20042;-73
2021/10/04 06:32:53;;;;;;;79.10;33.67;;;;;;;;;;5033719;28;20057;-73
2021/10/04 06:35:18;;;;;;;74.97;32.83;;;;;;;;;;5045601;28;20053;-73
2021/10/04 06:37:44;;;;;;;77.57;30.83;;;;;;;;;;5039015;28;20098;-73
2021/10/04 06:40:11;;;;;;;77.63;36.28;;;;;;;;;;5016663;28;20096;-73
2021/10/04 06:42:37;;;;;;;83.63;36.58;;;;;;;;;;5031387;28;20032;-74
2021/10/04 06:45:03;;;;;;;80.22;33.17;;;;;;;;;;5034519;28;20022;-72
2021/10/04 06:47:29;;;;;;;78.38;32.95;;;;;;;;;;5026820;28;20048;-74
2021/10/04 06:49:54;;;;;;;79.32;32.08;;;;;;;;;;5028060;28;20420;-74
2021/10/04 06:52:20;;;;;;;79.72;32.83;;;;;;;;;;5028574;28;20099;-73
2021/10/04 06:54:45;;;;;;;76.90;30.90;;;;;;;;;;5029050;28;20037;-73
2021/10/04 06:57:11;;;;;;;75.20;30.38;;;;;;;;;;5034445;28;20068;-74
2021/10/04 06:59:36;;;;;;;77.18;34.53;;;;;;;;;;5024397;28;20509;-75
2021/10/04 07:02:04;;;;;;;73.65;31.17;;;;;;;;;;5026464;28;20140;-75
2021/10/04 07:04:29;;;;;;;77.53;31.48;;;;;;;;;;5033226;28;20115;-72
2021/10/04 07:06:56;;;;;;;76.05;33.45;;;;;;;;;;5033072;28;20520;-73
2021/10/04 07:09:22;;;;;;;75.03;32.60;;;;;;;;;;5015815;28;20391;-74
2021/10/04 07:11:48;;;;;;;79.43;31.90;;;;;;;;;;5037427;28;20037;-74
2021/10/04 07:14:13;;;;;;;76.43;32.17;;;;;;;;;;5030030;28;20029;-74
2021/10/04 07:16:40;;;;;;;83.15;32.88;;;;;;;;;;5010756;28;20045;-73
2021/10/04 07:19:07;;;;;;;79.22;31.92;;;;;;;;;;5036943;28;20103;-74
2021/10/04 07:21:33;;;;;;;73.95;31.52;;;;;;;;;;5030369;28;20073;-71
2021/10/04 07:23:59;;;;;;;88.15;39.80;;;;;;;;;;5028934;28;20053;-74
2021/10/04 07:26:30;;;;;;;86.32;35.20;;;;;;;;;;5038045;28;20402;-73
2021/10/04 07:28:55;;;;;;;81.75;32.35;;;;;;;;;;5021434;28;20026;-73
2021/10/04 07:31:21;;;;;;;90.72;39.90;;;;;;;;;;5028692;28;20031;-73
2021/10/04 07:33:48;;;;;;;83.50;32.92;;;;;;;;;;5029550;28;20046;-72
2021/10/04 07:36:13;;;;;;;77.38;32.92;;;;;;;;;;5029073;28;20038;-73
2021/10/04 07:38:39;;;;;;;87.43;34.55;;;;;;;;;;5031968;28;20408;-74
2021/10/04 07:41:07;;;;;;;76.85;33.38;;;;;;;;;;5017925;28;20029;-72
2021/10/04 07:43:33;;;;;;;90.18;35.13;;;;;;;;;;5029113;28;20095;-74
2021/10/04 07:46:01;;;;;;;83.45;33.72;;;;;;;;;;5026320;28;20028;-73
2021/10/04 07:48:27;;;;;;;83.53;34.53;;;;;;;;;;5029599;28;20053;-73
2021/10/04 07:50:52;;;;;;;91.30;37.72;;;;;;;;;;5032052;28;20531;-74
2021/10/04 07:53:18;;;;;;;86.13;35.38;;;;;;;;;;5025964;28;20516;-73
2021/10/04 07:55:44;;;;;;;94.72;38.85;;;;;;;;;;5027743;28;20025;-73
2021/10/04 07:58:11;;;;;;;83.03;36.47;;;;;;;;;;5021981;28;20489;-72
2021/10/04 08:00:37;;;;;;;103.18;38.20;;;;;;;;;;5024189;28;20025;-72
2021/10/04 08:03:06;;;;;;;88.07;38.13;;;;;;;;;;5030546;28;20067;-71
2021/10/04 08:05:33;;;;;;;96.88;41.47;;;;;;;;;;5036686;28;20025;-73
2021/10/04 08:07:58;;;;;;;96.05;38.35;;;;;;;;;;5034661;28;20044;-71
2021/10/04 08:10:25;;;;;;;90.45;37.72;;;;;;;;;;5035944;28;20044;-71
2021/10/04 08:12:51;;;;;;;87.07;37.72;;;;;;;;;;5027084;28;20116;-74
2021/10/04 08:15:19;;;;;;;103.25;42.25;;;;;;;;;;5029295;28;20026;-72
2021/10/04 08:17:45;;;;;;;88.70;36.35;;;;;;;;;;5028096;28;20042;-74
2021/10/04 08:20:11;;;;;;;91.63;38.08;;;;;;;;;;5033148;28;20036;-75
2021/10/04 08:22:38;;;;;;;89.97;40.47;;;;;;;;;;5029067;28;20025;-73
2021/10/04 08:25:08;;;;;;;82.55;38.38;;;;;;;;;;5038036;28;20037;-75
2021/10/04 08:27:34;;;;;;;95.03;36.70;;;;;;;;;;5028806;28;20013;-75
2021/10/04 08:30:00;;;;;;;93.88;39.05;;;;;;;;;;5035743;28;20094;-73
2021/10/04 08:32:25;;;;;;;96.07;38.90;;;;;;;;;;5025202;28;20493;-74
2021/10/04 08:34:51;;;;;;;83.97;36.22;;;;;;;;;;5021792;28;20046;-74
2021/10/04 08:37:16;;;;;;;90.60;39.17;;;;;;;;;;5021455;28;20532;-74
2021/10/04 08:39:42;;;;;;;94.35;39.72;;;;;;;;;;5026674;28;20057;-73
2021/10/04 08:42:07;;;;;;;105.63;39.88;;;;;;;;;;5026619;28;20083;-74
2021/10/04 08:44:33;;;;;;;92.38;37.17;;;;;;;;;;5027504;28;20064;-74
2021/10/04 08:46:59;;;;;;;87.05;39.42;;;;;;;;;;5025710;28;20036;-72
2021/10/04 08:49:26;;;;;;;94.97;38.97;;;;;;;;;;5031062;28;20044;-74
2021/10/04 08:51:52;;;;;;;96.70;39.33;;;;;;;;;;5032614;28;20024;-74
2021/10/04 08:54:24;;;;;;;86.75;38.78;;;;;;;;;;5035320;28;20028;-74
2021/10/04 08:56:51;;;;;;;78.60;36.25;;;;;;;;;;5032803;28;20041;-75
2021/10/04 08:59:17;;;;;;;106.57;40.83;;;;;;;;;;5022705;28;20489;-73
2021/10/04 09:01:44;;;;;;;91.72;37.83;;;;;;;;;;5020749;28;20041;-74
2021/10/04 09:04:10;;;;;;;102.82;37.97;;;;;;;;;;5029386;28;20045;-74
2021/10/04 09:06:40;;;;;;;87.15;35.65;;;;;;;;;;5010581;28;20052;-74
2021/10/04 09:09:11;;;;;;;97.07;40.25;;;;;;;;;;5023953;28;20017;-75
2021/10/04 09:11:45;;;;;;;94.40;37.67;;;;;;;;;;5029336;28;20069;-72
2021/10/04 09:14:19;;;;;;;91.75;38.42;;;;;;;;;;5027026;28;20044;-73
2021/10/04 09:16:59;;;;;;;88.30;39.65;;;;;;;;;;5039025;28;20032;-75
2021/10/04 09:19:35;;;;;;;88.82;38.65;;;;;;;;;;5020579;28;20037;-74
2021/10/04 09:22:17;;;;;;;82.10;35.10;;;;;;;;;;5018414;28;20025;-72
2021/10/04 09:25:03;;;;;;;79.43;35.20;;;;;;;;;;5026096;28;20095;-73
2021/10/04 09:27:32;;;;;;;75.18;35.08;;;;;;;;;;5014568;28;20049;-74
2021/10/04 09:30:24;;;;;;;74.05;36.35;;;;;;;;;;5019604;28;20045;-74
2021/10/04 09:32:52;;;;;;;79.70;39.40;;;;;;;;;;5039903;28;20337;-72
2021/10/04 09:35:22;;;;;;;74.90;36.13;;;;;;;;;;5035472;28;20130;-72
2021/10/04 09:38:13;;;;;;;67.55;33.13;;;;;;;;;;5020880;28;20029;-73
2021/10/04 09:40:42;;;;;;;80.73;35.90;;;;;;;;;;5026903;28;20041;-73
2021/10/04 09:43:21;;;;;;;82.15;35.22;;;;;;;;;;5027095;28;20270;-73
2021/10/04 09:46:14;;;;;;;77.55;33.70;;;;;;;;;;5025890;28;20516;-72
2021/10/04 09:48:58;;;;;;;84.75;37.45;;;;;;;;;;5043448;28;20021;-73
2021/10/04 09:51:25;;;;;;;75.85;35.20;;;;;;;;;;5026107;28;20036;-74
2021/10/04 09:54:10;;;;;;;78.38;34.47;;;;;;;;;;5033022;28;20472;-73
2021/10/04 09:56:38;;;;;;;78.13;37.25;;;;;;;;;;5046455;28;20508;-74
2021/10/04 09:59:06;;;;;;;69.95;32.58;;;;;;;;;;5036142;28;20037;-74
2021/10/04 10:01:32;;;;;;;69.95;33.88;;;;;;;;;;5033723;28;20043;-72
2021/10/04 10:03:57;;;;;;;69.40;32.25;;;;;;;;;;5028049;28;20116;-75
2021/10/04 10:06:24;;;;;;;74.53;32.80;;;;;;;;;;5022634;28;20057;-74
2021/10/04 10:08:50;;;;;;;70.75;32.17;;;;;;;;;;5025648;28;21356;-73
2021/10/04 10:11:21;;;;;;;73.70;32.42;;;;;;;;;;5029955;28;20045;-73
2021/10/04 10:13:48;;;;;;;63.17;30.50;;;;;;;;;;5032518;28;20033;-74
2021/10/04 10:16:21;;;;;;;62.47;30.17;;;;;;;;;;5031795;28;20041;-73
2021/10/04 10:19:00;;;;;;;57.10;30.25;;;;;;;;;;5021081;28;20091;-73
2021/10/04 10:21:30;;;;;;;62.03;30.00;;;;;;;;;;5025476;28;20088;-75
2021/10/04 10:24:12;;;;;;;70.22;32.03;;;;;;;;;;5029835;28;20043;-74
2021/10/04 10:26:49;;;;;;;77.25;31.70;;;;;;;;;;5020856;28;20108;-74
2021/10/04 10:29:19;;;;;;;63.63;31.38;;;;;;;;;;5019868;28;20694;-73
2021/10/04 10:31:57;;;;;;;77.93;30.45;;;;;;;;;;5029425;28;20117;-73
2021/10/04 10:34:39;;;;;;;79.80;30.75;;;;;;;;;;5024163;28;20037;-74
2021/10/04 10:37:24;;;;;;;70.03;34.47;;;;;;;;;;5022514;28;20030;-73
2021/10/04 10:39:57;;;;;;;68.70;30.52;;;;;;;;;;5019892;28;20079;-74
2021/10/04 10:42:34;;;;;;;57.65;29.65;;;;;;;;;;5027575;28;20036;-74
2021/10/04 10:45:00;;;;;;;73.53;32.13;;;;;;;;;;5028404;28;20037;-73
2021/10/04 10:50:05;;;;;;;73.97;32.92;;;;;;;;;;5025313;28;20021;-73
2021/10/04 10:52:33;;;;;;;69.57;31.95;;;;;;;;;;5022270;28;20118;-73
2021/10/04 10:55:01;;;;;;;65.85;31.45;;;;;;;;;;5041281;28;20025;-73
2021/10/04 10:57:58;;;;;;;71.68;32.58;;;;;;;;;;5031203;28;20031;-73
2021/10/04 11:00:33;;;;;;;58.60;27.58;;;;;;;;;;5024371;28;20032;-74
2021/10/04 11:03:04;;;;;;;65.07;30.80;;;;;;;;;;5032087;28;20052;-74
2021/10/04 11:05:38;;;;;;;70.28;30.20;;;;;;;;;;5018236;28;20029;-74
2021/10/04 11:08:16;;;;;;;66.65;31.38;;;;;;;;;;5018452;28;20366;-75
2021/10/04 11:10:48;;;;;;;70.43;33.60;;;;;;;;;;5026747;28;20029;-73
2021/10/04 11:13:37;;;;;;;64.68;32.42;;;;;;;;;;5033968;28;20035;-77
2021/10/04 11:16:09;;;;;;;59.42;30.42;;;;;;;;;;5033783;28;20040;-72
2021/10/04 11:18:39;;;;;;;;;;;;;;;;;;5029168;28;20030;-75
2021/10/04 11:21:08;;;;;;;53.00;28.05;;;;;;;;;;5023605;28;19921;-74
2021/10/04 11:23:39;;;;;;;61.60;31.25;;;;;;;;;;5028558;28;20488;-74
2021/10/04 11:26:08;;;;;;;65.78;29.83;;;;;;;;;;5035750;28;20020;-74
2021/10/04 11:28:37;;;;;;;56.63;26.98;;;;;;;;;;5037300;28;20033;-72
2021/10/04 11:31:09;;;;;;;58.17;28.08;;;;;;;;;;5036811;28;20040;-71
2021/10/04 11:33:39;;;;;;;53.78;28.05;;;;;;;;;;5032721;28;20033;-73
2021/10/04 11:36:08;;;;;;;64.10;29.23;;;;;;;;;;5028839;28;20049;-73
2021/10/04 11:38:37;;;;;;;62.08;28.02;;;;;;;;;;5030762;28;20096;-73
2021/10/04 11:41:04;;;;;;;57.95;28.67;;;;;;;;;;5028932;28;20334;-74
2021/10/04 11:43:36;;;;;;;56.28;27.77;;;;;;;;;;5025935;28;20389;-73
2021/10/04 11:46:14;;;;;;;54.53;27.10;;;;;;;;;;5033152;28;20568;-74
2021/10/04 11:48:40;;;;;;;52.50;26.98;;;;;;;;;;5026051;28;20565;-73
2021/10/04 11:51:09;;;;;;;59.17;28.30;;;;;;;;;;5031257;28;20112;-74
2021/10/04 11:53:41;;;;;;;62.50;27.65;;;;;;;;;;5028128;28;20534;-75
2021/10/04 11:56:12;;;;;;;52.42;27.40;;;;;;;;;;5023088;28;20044;-73
2021/10/04 11:58:50;;;;;;;64.50;28.38;;;;;;;;;;5020074;28;20021;-73
2021/10/04 12:01:32;;;;;;;67.88;29.52;;;;;;;;;;5033558;28;20061;-73
2021/10/04 12:04:03;;;;;;;44.25;25.35;;;;;;;;;;5040937;28;20025;-73
2021/10/04 12:06:33;;;;;;;51.80;25.60;;;;;;;;;;5034590;28;20409;-74
2021/10/04 12:08:59;;;;;;;52.45;27.02;;;;;;;;;;5044200;28;20034;-73
2021/10/04 12:11:25;;;;;;;58.90;26.48;;;;;;;;;;5028585;28;20025;-72
2021/10/04 12:13:54;;;;;;;47.60;23.63;;;;;;;;;;5020436;28;20048;-73
2021/10/04 12:16:27;;;;;;;50.08;24.92;;;;;;;;;;5020660;28;20107;-74
2021/10/04 12:18:56;;;;;;;53.45;26.52;;;;;;;;;;5006772;28;20548;-74
2021/10/04 12:21:50;;;;;;;51.55;25.63;;;;;;;;;;5021948;28;20041;-74
2021/10/04 12:24:24;;;;;;;52.28;26.98;;;;;;;;;;5029834;28;20118;-74
2021/10/04 12:27:18;;;;;;;51.30;26.42;;;;;;;;;;5025811;28;20477;-72
2021/10/04 12:30:00;;;;;;;56.80;26.30;;;;;;;;;;5043404;28;20428;-74
2021/10/04 12:32:39;;;;;;;;;;;;;;;;;;5031507;28;20405;-74
2021/10/04 12:35:26;;;;;;;60.13;25.00;;;;;;;;;;5027782;28;19972;-75
2021/10/04 12:37:57;;;;;;;45.40;25.38;;;;;;;;;;5032696;28;20373;-74
2021/10/04 12:40:31;;;;;;;55.38;24.10;;;;;;;;;;5040113;28;20083;-74
2021/10/04 12:43:04;;;;;;;46.10;22.67;;;;;;;;;;5027137;28;20045;-72
2021/10/04 12:45:38;;;;;;;46.67;25.23;;;;;;;;;;5007733;28;20094;-74
2021/10/04 12:48:17;;;;;;;45.50;25.15;;;;;;;;;;5030392;28;20037;-73
2021/10/04 12:50:46;;;;;;;56.97;25.80;;;;;;;;;;5042346;28;20026;-73
2021/10/04 12:53:23;;;;;;;54.95;25.45;;;;;;;;;;5028531;28;20060;-73
2021/10/04 12:56:09;;;;;;;59.50;25.33;;;;;;;;;;5030189;28;20036;-73
2021/10/04 12:58:41;;;;;;;61.70;25.95;;;;;;;;;;5027852;28;20038;-74
2021/10/04 13:01:18;;;;;;;45.13;24.52;;;;;;;;;;5016396;28;20032;-73
2021/10/04 13:03:55;;;;;;;57.92;27.20;;;;;;;;;;5021377;28;20049;-74
2021/10/04 13:06:27;;;;;;;47.90;27.20;;;;;;;;;;5043301;28;20029;-73
2021/10/04 13:08:56;;;;;;;53.47;26.98;;;;;;;;;;5026733;28;20477;-74
2021/10/04 13:11:23;;;;;;;56.35;25.58;;;;;;;;;;5028336;28;20029;-74
2021/10/04 13:13:50;;;;;;;56.47;26.67;;;;;;;;;;5033882;28;20667;-75
2021/10/04 13:16:16;;;;;;;56.13;25.77;;;;;;;;;;5031888;28;20037;-75
2021/10/04 13:18:43;;;;;;;57.28;25.65;;;;;;;;;;5023123;28;20035;-74
2021/10/04 13:21:14;;;;;;;61.40;26.98;;;;;;;;;;5023928;28;20104;-72
2021/10/04 13:23:50;;;;;;;58.25;26.15;;;;;;;;;;5033479;28;20021;-74
2021/10/04 13:26:17;;;;;;;55.42;26.55;;;;;;;;;;5032408;28;20433;-74
2021/10/04 13:28:44;;;;;;;65.63;27.35;;;;;;;;;;5033658;28;20025;-73
2021/10/04 13:31:14;;;;;;;52.80;26.27;;;;;;;;;;5025159;28;20101;-73
2021/10/04 13:33:45;;;;;;;72.57;28.90;;;;;;;;;;5033728;28;20045;-73
2021/10/04 13:36:12;;;;;;;57.42;27.23;;;;;;;;;;5041417;28;20056;-75
2021/10/04 13:38:39;;;;;;;52.83;25.83;;;;;;;;;;5026340;28;20029;-73
2021/10/04 13:41:06;;;;;;;56.28;26.45;;;;;;;;;;5033074;28;20435;-74
2021/10/04 13:43:32;;;;;;;52.88;28.23;;;;;;;;;;5027928;28;20033;-74
2021/10/04 13:46:00;;;;;;;57.28;28.38;;;;;;;;;;5017841;28;20662;-75
2021/10/04 13:48:28;;;;;;;54.60;26.80;;;;;;;;;;5023657;28;20071;-74
2021/10/04 13:50:55;;;;;;;55.78;28.30;;;;;;;;;;5033445;28;20017;-74
2021/10/04 13:53:22;;;;;;;57.38;27.10;;;;;;;;;;5034840;28;20030;-74
2021/10/04 13:55:47;;;;;;;58.05;25.13;;;;;;;;;;5019163;28;20022;-74
2021/10/04 13:58:13;;;;;;;50.15;27.02;;;;;;;;;;5018747;28;20089;-73
2021/10/04 14:00:40;;;;;;;57.33;28.92;;;;;;;;;;5009306;28;20115;-74
2021/10/04 14:03:06;;;;;;;56.03;28.30;;;;;;;;;;5036369;28;20029;-73
2021/10/04 14:05:32;;;;;;;52.88;26.17;;;;;;;;;;5013262;28;20026;-73
2021/10/04 14:07:57;;;;;;;50.20;24.20;;;;;;;;;;5028269;28;20076;-75
2021/10/04 14:10:27;;;;;;;52.45;22.80;;;;;;;;;;5008996;28;20030;-76
2021/10/04 14:12:52;;;;;;;38.88;22.33;;;;;;;;;;5027910;28;20115;-73
2021/10/04 14:15:18;;;;;;;51.20;22.92;;;;;;;;;;5031841;28;20107;-72
2021/10/04 14:17:44;;;;;;;56.97;26.23;;;;;;;;;;5017253;28;20341;-73
2021/10/04 14:20:13;;;;;;;54.65;24.80;;;;;;;;;;5022235;28;20061;-73
2021/10/04 14:22:39;;;;;;;56.83;27.15;;;;;;;;;;5020299;28;20044;-73
2021/10/04 14:25:08;;;;;;;41.50;21.42;;;;;;;;;;5031577;28;20147;-76